sensor_id;sensor_type;location;lat;lon;timestamp;noise_LAeq;noise_LA_min;noise_LA_max;noise_LA01;noise_LA95
49543;Laerm;35435;48.792;8.962;2022-11-15T00:00:23;44.01;40.16;54.87;;
49543;Laerm;35435;48.792;8.962;2022-11-15T00:02:49;44.01;40.16;48.90;;
49543;Laerm;35435;48.792;8.962;2022-11-15T00:05:14;43.84;41.06;49.32;;
49543;Laerm;35435;48.792;8.962;2022-11-15T00:07:40;43.69;40.26;47.40;;
49543;Laerm;35435;48.792;8.962;2022-11-15T00:10:05;44.03;41.22;48.68;;
49543;Laerm;35435;48.792;8.962;2022-11-15T00:12:31;69.81;41.79;86.35;;
49543;Laerm;35435;48.792;8.962;2022-11-15T00:14:56;44.73;41.46;47.82;;
49543;Laerm;35435;48.792;8.962;2022-11-15T00:17:22;44.80;41.53;59.75;;
49543;Laerm;35435;48.792;8.962;2022-11-15T00:19:47;43.81;39.87;49.13;;
49543;Laerm;35435;48.792;8.962;2022-11-15T00:22:12;55.36;40.48;74.50;;
49543;Laerm;35435;48.792;8.962;2022-11-15T00:24:38;43.60;40.38;49.11;;
49543;Laerm;35435;48.792;8.962;2022-11-15T00:27:03;68.14;42.65;83.99;;
49543;Laerm;35435;48.792;8.962;2022-11-15T00:29:28;45.02;41.73;52.64;;
49543;Laerm;35435;48.792;8.962;2022-11-15T00:31:54;44.17;41.02;49.35;;
49543;Laerm;35435;48.792;8.962;2022-11-15T00:34:19;44.31;41.28;49.55;;
49543;Laerm;35435;48.792;8.962;2022-11-15T00:36:44;44.09;40.36;48.86;;
49543;Laerm;35435;48.792;8.962;2022-11-15T00:39:10;44.19;40.78;51.10;;
49543;Laerm;35435;48.792;8.962;2022-11-15T00:41:35;44.37;39.81;52.61;;
49543;Laerm;35435;48.792;8.962;2022-11-15T00:44:00;44.52;41.61;54.42;;
49543;Laerm;35435;48.792;8.962;2022-11-15T00:46:26;44.25;40.78;50.16;;
49543;Laerm;35435;48.792;8.962;2022-11-15T00:48:51;42.96;39.97;47.86;;
49543;Laerm;35435;48.792;8.962;2022-11-15T00:51:17;43.95;41.02;49.14;;
49543;Laerm;35435;48.792;8.962;2022-11-15T00:53:42;44.49;41.64;58.92;;
49543;Laerm;35435;48.792;8.962;2022-11-15T00:56:07;43.78;40.82;47.67;;
49543;Laerm;35435;48.792;8.962;2022-11-15T00:58:33;44.18;39.28;52.72;;
49543;Laerm;35435;48.792;8.962;2022-11-15T01:01:12;44.39;40.82;53.44;;
49543;Laerm;35435;48.792;8.962;2022-11-15T01:03:34;45.31;41.82;55.90;;
49543;Laerm;35435;48.792;8.962;2022-11-15T01:06:00;45.46;41.61;58.66;;
49543;Laerm;35435;48.792;8.962;2022-11-15T01:08:25;45.55;42.30;55.94;;
49543;Laerm;35435;48.792;8.962;2022-11-15T01:10:51;44.69;41.44;53.19;;
49543;Laerm;35435;48.792;8.962;2022-11-15T01:13:16;44.46;40.55;50.43;;
49543;Laerm;35435;48.792;8.962;2022-11-15T01:15:42;44.55;41.04;50.50;;
49543;Laerm;35435;48.792;8.962;2022-11-15T01:18:07;45.54;42.13;54.75;;
49543;Laerm;35435;48.792;8.962;2022-11-15T01:20:32;45.32;41.00;57.01;;
49543;Laerm;35435;48.792;8.962;2022-11-15T01:22:58;45.44;40.78;62.19;;
49543;Laerm;35435;48.792;8.962;2022-11-15T01:25:23;44.63;41.10;49.26;;
49543;Laerm;35435;48.792;8.962;2022-11-15T01:27:48;43.10;39.67;47.41;;
49543;Laerm;35435;48.792;8.962;2022-11-15T01:30:14;43.68;39.95;51.38;;
49543;Laerm;35435;48.792;8.962;2022-11-15T01:32:39;43.33;40.00;46.81;;
49543;Laerm;35435;48.792;8.962;2022-11-15T01:35:05;43.87;40.34;58.29;;
49543;Laerm;35435;48.792;8.962;2022-11-15T01:37:30;44.15;40.27;49.03;;
49543;Laerm;35435;48.792;8.962;2022-11-15T01:39:56;43.99;40.48;52.27;;
49543;Laerm;35435;48.792;8.962;2022-11-15T01:42:21;44.35;41.26;51.87;;
49543;Laerm;35435;48.792;8.962;2022-11-15T01:44:47;45.27;41.81;53.78;;
49543;Laerm;35435;48.792;8.962;2022-11-15T01:47:21;43.18;39.58;46.51;;
49543;Laerm;35435;48.792;8.962;2022-11-15T01:50:06;44.06;39.58;50.16;;
49543;Laerm;35435;48.792;8.962;2022-11-15T01:52:18;44.06;41.24;48.64;;
49543;Laerm;35435;48.792;8.962;2022-11-15T01:54:44;44.26;41.30;50.73;;
49543;Laerm;35435;48.792;8.962;2022-11-15T01:57:10;44.24;41.51;50.42;;
49543;Laerm;35435;48.792;8.962;2022-11-15T01:59:37;44.04;41.04;51.36;;
49543;Laerm;35435;48.792;8.962;2022-11-15T02:02:04;43.17;39.12;47.14;;
49543;Laerm;35435;48.792;8.962;2022-11-15T02:04:33;43.33;39.49;46.59;;
49543;Laerm;35435;48.792;8.962;2022-11-15T02:07:00;44.17;40.00;47.69;;
49543;Laerm;35435;48.792;8.962;2022-11-15T02:09:26;43.27;39.75;49.88;;
49543;Laerm;35435;48.792;8.962;2022-11-15T02:11:52;44.26;41.48;49.49;;
49543;Laerm;35435;48.792;8.962;2022-11-15T02:14:19;44.43;41.48;48.37;;
49543;Laerm;35435;48.792;8.962;2022-11-15T02:19:28;44.81;41.34;50.23;;
49543;Laerm;35435;48.792;8.962;2022-11-15T02:22:00;44.98;42.22;49.33;;
49543;Laerm;35435;48.792;8.962;2022-11-15T02:37:11;43.78;40.41;48.97;;
49543;Laerm;35435;48.792;8.962;2022-11-15T02:42:18;44.88;42.13;54.15;;
49543;Laerm;35435;48.792;8.962;2022-11-15T02:45:00;44.08;41.88;46.89;;
49543;Laerm;35435;48.792;8.962;2022-11-15T02:47:27;44.18;42.01;48.87;;
49543;Laerm;35435;48.792;8.962;2022-11-15T02:49:55;44.62;40.87;49.70;;
49543;Laerm;35435;48.792;8.962;2022-11-15T02:52:22;44.60;41.42;50.13;;
49543;Laerm;35435;48.792;8.962;2022-11-15T02:54:54;43.69;40.43;49.87;;
49543;Laerm;35435;48.792;8.962;2022-11-15T02:57:24;44.21;40.67;49.28;;
49543;Laerm;35435;48.792;8.962;2022-11-15T03:02:18;52.88;42.58;75.80;;
49543;Laerm;35435;48.792;8.962;2022-11-15T03:07:15;44.37;41.24;48.79;;
49543;Laerm;35435;48.792;8.962;2022-11-15T03:10:24;45.05;42.79;50.60;;
49543;Laerm;35435;48.792;8.962;2022-11-15T03:12:12;44.78;40.91;50.55;;
49543;Laerm;35435;48.792;8.962;2022-11-15T03:14:39;44.13;40.73;50.13;;
49543;Laerm;35435;48.792;8.962;2022-11-15T03:17:16;44.81;41.50;51.38;;
49543;Laerm;35435;48.792;8.962;2022-11-15T03:19:45;46.40;42.27;55.38;;
49543;Laerm;35435;48.792;8.962;2022-11-15T03:22:08;45.75;42.24;53.82;;
49543;Laerm;35435;48.792;8.962;2022-11-15T03:24:36;64.47;42.88;82.88;;
49543;Laerm;35435;48.792;8.962;2022-11-15T03:27:02;45.76;42.90;58.64;;
49543;Laerm;35435;48.792;8.962;2022-11-15T03:29:34;47.20;43.37;54.88;;
49543;Laerm;35435;48.792;8.962;2022-11-15T03:31:58;45.93;42.19;55.86;;
49543;Laerm;35435;48.792;8.962;2022-11-15T03:34:31;45.06;42.20;53.03;;
49543;Laerm;35435;48.792;8.962;2022-11-15T03:36:57;47.53;42.18;56.60;;
49543;Laerm;35435;48.792;8.962;2022-11-15T03:39:22;47.41;42.83;58.14;;
49543;Laerm;35435;48.792;8.962;2022-11-15T03:44:31;48.28;43.10;67.22;;
49543;Laerm;35435;48.792;8.962;2022-11-15T03:47:01;67.78;42.53;79.32;;
49543;Laerm;35435;48.792;8.962;2022-11-15T03:49:27;48.34;43.32;57.82;;
49543;Laerm;35435;48.792;8.962;2022-11-15T03:51:52;58.36;42.42;72.75;;
49543;Laerm;35435;48.792;8.962;2022-11-15T03:54:18;46.56;42.78;55.21;;
49543;Laerm;35435;48.792;8.962;2022-11-15T03:56:43;47.29;43.93;53.20;;
49543;Laerm;35435;48.792;8.962;2022-11-15T03:59:09;45.33;42.55;54.92;;
49543;Laerm;35435;48.792;8.962;2022-11-15T04:01:34;55.23;42.56;73.26;;
49543;Laerm;35435;48.792;8.962;2022-11-15T04:03:59;46.54;43.15;52.09;;
49543;Laerm;35435;48.792;8.962;2022-11-15T04:06:25;54.77;43.55;71.87;;
49543;Laerm;35435;48.792;8.962;2022-11-15T04:08:50;47.32;43.95;56.82;;
49543;Laerm;35435;48.792;8.962;2022-11-15T04:11:15;47.26;44.13;55.29;;
49543;Laerm;35435;48.792;8.962;2022-11-15T04:13:41;48.33;43.88;57.57;;
49543;Laerm;35435;48.792;8.962;2022-11-15T04:16:06;59.79;44.01;79.63;;
49543;Laerm;35435;48.792;8.962;2022-11-15T04:18:32;48.51;44.28;59.13;;
49543;Laerm;35435;48.792;8.962;2022-11-15T04:20:57;48.68;44.67;56.47;;
49543;Laerm;35435;48.792;8.962;2022-11-15T04:23:41;48.62;43.96;56.58;;
49543;Laerm;35435;48.792;8.962;2022-11-15T04:26:25;57.80;44.54;74.74;;
49543;Laerm;35435;48.792;8.962;2022-11-15T04:28:50;51.29;44.87;60.19;;
49543;Laerm;35435;48.792;8.962;2022-11-15T04:31:34;59.52;43.70;81.64;;
49543;Laerm;35435;48.792;8.962;2022-11-15T04:34:00;55.83;44.94;71.84;;
49543;Laerm;35435;48.792;8.962;2022-11-15T04:36:25;51.24;45.80;59.92;;
49543;Laerm;35435;48.792;8.962;2022-11-15T04:39:09;53.24;44.97;62.73;;
49543;Laerm;35435;48.792;8.962;2022-11-15T04:41:34;49.46;44.60;58.65;;
49543;Laerm;35435;48.792;8.962;2022-11-15T04:44:00;50.13;45.49;60.46;;
49543;Laerm;35435;48.792;8.962;2022-11-15T04:46:25;61.72;45.72;75.26;;
49543;Laerm;35435;48.792;8.962;2022-11-15T04:48:51;49.83;44.47;56.90;;
49543;Laerm;35435;48.792;8.962;2022-11-15T04:51:17;50.23;44.15;63.27;;
49543;Laerm;35435;48.792;8.962;2022-11-15T04:53:43;50.15;45.68;61.09;;
49543;Laerm;35435;48.792;8.962;2022-11-15T04:56:08;48.39;45.05;52.90;;
49543;Laerm;35435;48.792;8.962;2022-11-15T04:58:33;48.78;44.59;57.91;;
49543;Laerm;35435;48.792;8.962;2022-11-15T05:01:06;57.89;46.94;74.63;;
49543;Laerm;35435;48.792;8.962;2022-11-15T05:03:31;58.21;44.77;74.50;;
49543;Laerm;35435;48.792;8.962;2022-11-15T05:06:15;57.40;46.35;76.87;;
49543;Laerm;35435;48.792;8.962;2022-11-15T05:08:40;50.06;45.31;56.49;;
49543;Laerm;35435;48.792;8.962;2022-11-15T05:11:06;49.35;44.83;57.43;;
49543;Laerm;35435;48.792;8.962;2022-11-15T05:13:31;49.50;45.44;58.89;;
49543;Laerm;35435;48.792;8.962;2022-11-15T05:15:57;54.07;46.39;71.04;;
49543;Laerm;35435;48.792;8.962;2022-11-15T05:18:22;61.05;46.34;74.51;;
49543;Laerm;35435;48.792;8.962;2022-11-15T05:20:47;51.35;46.21;58.86;;
49543;Laerm;35435;48.792;8.962;2022-11-15T05:23:13;51.19;46.08;58.48;;
49543;Laerm;35435;48.792;8.962;2022-11-15T05:25:38;50.79;45.54;59.14;;
49543;Laerm;35435;48.792;8.962;2022-11-15T05:28:03;50.02;45.41;59.85;;
49543;Laerm;35435;48.792;8.962;2022-11-15T05:30:29;62.95;47.41;80.59;;
49543;Laerm;35435;48.792;8.962;2022-11-15T05:32:54;60.31;46.32;75.43;;
49543;Laerm;35435;48.792;8.962;2022-11-15T05:35:30;49.63;45.84;54.36;;
49543;Laerm;35435;48.792;8.962;2022-11-15T05:37:56;57.89;45.01;77.12;;
49543;Laerm;35435;48.792;8.962;2022-11-15T05:40:22;50.03;46.89;61.31;;
49543;Laerm;35435;48.792;8.962;2022-11-15T05:42:48;58.43;46.66;76.92;;
49543;Laerm;35435;48.792;8.962;2022-11-15T05:45:14;57.98;46.07;73.00;;
49543;Laerm;35435;48.792;8.962;2022-11-15T05:47:40;56.93;46.52;70.55;;
49543;Laerm;35435;48.792;8.962;2022-11-15T05:50:06;49.79;45.08;55.00;;
49543;Laerm;35435;48.792;8.962;2022-11-15T05:52:33;49.50;46.13;66.07;;
49543;Laerm;35435;48.792;8.962;2022-11-15T05:54:59;49.29;46.25;52.92;;
49543;Laerm;35435;48.792;8.962;2022-11-15T05:57:24;49.69;46.32;55.15;;
49543;Laerm;35435;48.792;8.962;2022-11-15T05:59:50;50.42;46.02;56.23;;
49543;Laerm;35435;48.792;8.962;2022-11-15T06:02:16;62.03;45.83;79.89;;
49543;Laerm;35435;48.792;8.962;2022-11-15T06:04:41;48.91;45.10;54.79;;
49543;Laerm;35435;48.792;8.962;2022-11-15T06:07:06;53.22;45.87;68.81;;
49543;Laerm;35435;48.792;8.962;2022-11-15T06:09:32;66.60;46.37;87.11;;
49543;Laerm;35435;48.792;8.962;2022-11-15T06:11:57;49.02;45.45;53.50;;
49543;Laerm;35435;48.792;8.962;2022-11-15T06:14:23;49.67;45.83;55.38;;
49543;Laerm;35435;48.792;8.962;2022-11-15T06:16:48;59.31;45.82;77.24;;
49543;Laerm;35435;48.792;8.962;2022-11-15T06:19:13;57.89;45.19;77.87;;
49543;Laerm;35435;48.792;8.962;2022-11-15T06:21:39;62.88;46.10;74.51;;
49543;Laerm;35435;48.792;8.962;2022-11-15T06:24:04;56.08;45.46;70.05;;
49543;Laerm;35435;48.792;8.962;2022-11-15T06:26:31;65.12;46.40;81.85;;
49543;Laerm;35435;48.792;8.962;2022-11-15T06:28:56;49.96;45.63;58.98;;
49543;Laerm;35435;48.792;8.962;2022-11-15T06:31:21;60.26;45.26;79.06;;
49543;Laerm;35435;48.792;8.962;2022-11-15T06:33:47;59.87;45.64;75.54;;
49543;Laerm;35435;48.792;8.962;2022-11-15T06:36:14;49.62;45.74;58.21;;
49543;Laerm;35435;48.792;8.962;2022-11-15T06:38:42;55.84;44.97;74.27;;
49543;Laerm;35435;48.792;8.962;2022-11-15T06:41:08;57.21;45.43;74.38;;
49543;Laerm;35435;48.792;8.962;2022-11-15T06:43:34;53.90;45.80;70.19;;
49543;Laerm;35435;48.792;8.962;2022-11-15T06:45:59;58.58;45.55;79.77;;
49543;Laerm;35435;48.792;8.962;2022-11-15T06:48:25;59.83;45.56;77.03;;
49543;Laerm;35435;48.792;8.962;2022-11-15T06:50:51;64.39;44.72;84.09;;
49543;Laerm;35435;48.792;8.962;2022-11-15T06:53:17;48.14;45.27;54.33;;
49543;Laerm;35435;48.792;8.962;2022-11-15T06:55:42;48.82;45.43;66.02;;
49543;Laerm;35435;48.792;8.962;2022-11-15T06:58:08;48.29;44.97;58.24;;
49543;Laerm;35435;48.792;8.962;2022-11-15T07:00:33;60.15;44.69;81.32;;
49543;Laerm;35435;48.792;8.962;2022-11-15T07:03:02;56.49;44.92;70.04;;
49543;Laerm;35435;48.792;8.962;2022-11-15T07:05:28;48.45;45.04;58.97;;
49543;Laerm;35435;48.792;8.962;2022-11-15T07:07:54;55.64;45.27;72.75;;
49543;Laerm;35435;48.792;8.962;2022-11-15T07:10:20;48.89;44.92;56.52;;
49543;Laerm;35435;48.792;8.962;2022-11-15T07:12:47;53.81;44.65;71.83;;
49543;Laerm;35435;48.792;8.962;2022-11-15T07:15:14;60.57;44.85;76.99;;
49543;Laerm;35435;48.792;8.962;2022-11-15T07:17:39;47.55;44.51;55.63;;
49543;Laerm;35435;48.792;8.962;2022-11-15T07:20:05;59.54;44.83;76.15;;
49543;Laerm;35435;48.792;8.962;2022-11-15T07:22:30;48.69;45.32;55.48;;
49543;Laerm;35435;48.792;8.962;2022-11-15T07:24:56;49.26;45.37;56.12;;
49543;Laerm;35435;48.792;8.962;2022-11-15T07:27:21;61.31;45.11;83.54;;
49543;Laerm;35435;48.792;8.962;2022-11-15T07:29:47;50.41;46.86;57.97;;
49543;Laerm;35435;48.792;8.962;2022-11-15T07:32:12;60.04;46.53;79.60;;
49543;Laerm;35435;48.792;8.962;2022-11-15T07:34:37;60.25;47.15;76.61;;
49543;Laerm;35435;48.792;8.962;2022-11-15T07:37:03;54.41;46.43;71.09;;
49543;Laerm;35435;48.792;8.962;2022-11-15T07:39:28;50.54;46.69;60.28;;
49543;Laerm;35435;48.792;8.962;2022-11-15T07:41:54;55.23;45.86;72.82;;
49543;Laerm;35435;48.792;8.962;2022-11-15T07:44:21;57.12;46.00;75.80;;
49543;Laerm;35435;48.792;8.962;2022-11-15T07:46:46;57.23;46.68;79.78;;
49543;Laerm;35435;48.792;8.962;2022-11-15T07:49:12;50.89;45.15;62.19;;
49543;Laerm;35435;48.792;8.962;2022-11-15T07:51:37;59.08;45.97;76.62;;
49543;Laerm;35435;48.792;8.962;2022-11-15T07:54:02;49.54;46.26;58.18;;
49543;Laerm;35435;48.792;8.962;2022-11-15T07:56:28;49.80;46.60;54.54;;
49543;Laerm;35435;48.792;8.962;2022-11-15T07:58:53;49.71;45.87;58.02;;
49543;Laerm;35435;48.792;8.962;2022-11-15T08:01:18;58.28;46.43;80.76;;
49543;Laerm;35435;48.792;8.962;2022-11-15T08:03:44;51.07;47.37;59.72;;
49543;Laerm;35435;48.792;8.962;2022-11-15T08:06:09;52.31;47.98;57.53;;
49543;Laerm;35435;48.792;8.962;2022-11-15T08:08:35;50.86;46.46;62.32;;
49543;Laerm;35435;48.792;8.962;2022-11-15T08:11:00;51.51;47.13;57.41;;
49543;Laerm;35435;48.792;8.962;2022-11-15T08:13:26;57.22;46.55;75.23;;
49543;Laerm;35435;48.792;8.962;2022-11-15T08:15:51;64.49;46.91;81.97;;
49543;Laerm;35435;48.792;8.962;2022-11-15T08:18:17;61.65;45.59;75.81;;
49543;Laerm;35435;48.792;8.962;2022-11-15T08:20:43;58.24;45.29;76.31;;
49543;Laerm;35435;48.792;8.962;2022-11-15T08:23:09;49.65;44.16;58.97;;
49543;Laerm;35435;48.792;8.962;2022-11-15T08:25:35;47.89;44.90;57.17;;
49543;Laerm;35435;48.792;8.962;2022-11-15T08:28:02;58.73;44.56;78.84;;
49543;Laerm;35435;48.792;8.962;2022-11-15T08:30:28;46.99;44.34;55.30;;
49543;Laerm;35435;48.792;8.962;2022-11-15T08:32:56;60.22;44.91;75.03;;
49543;Laerm;35435;48.792;8.962;2022-11-15T08:35:22;57.21;44.55;76.08;;
49543;Laerm;35435;48.792;8.962;2022-11-15T08:37:48;47.05;44.27;53.45;;
49543;Laerm;35435;48.792;8.962;2022-11-15T08:40:14;56.60;44.25;74.57;;
49543;Laerm;35435;48.792;8.962;2022-11-15T08:42:39;46.56;43.78;54.50;;
49543;Laerm;35435;48.792;8.962;2022-11-15T08:45:05;57.19;43.99;76.08;;
49543;Laerm;35435;48.792;8.962;2022-11-15T08:47:31;59.63;44.59;77.23;;
49543;Laerm;35435;48.792;8.962;2022-11-15T08:49:57;45.52;43.55;58.76;;
49543;Laerm;35435;48.792;8.962;2022-11-15T08:52:22;45.86;43.64;51.83;;
49543;Laerm;35435;48.792;8.962;2022-11-15T08:54:47;47.30;43.28;60.23;;
49543;Laerm;35435;48.792;8.962;2022-11-15T08:57:13;45.12;42.96;58.69;;
49543;Laerm;35435;48.792;8.962;2022-11-15T08:59:38;45.38;43.15;56.53;;
49543;Laerm;35435;48.792;8.962;2022-11-15T09:02:04;57.33;43.29;75.42;;
49543;Laerm;35435;48.792;8.962;2022-11-15T09:04:30;45.74;43.38;56.52;;
49543;Laerm;35435;48.792;8.962;2022-11-15T09:06:55;45.36;43.26;57.46;;
49543;Laerm;35435;48.792;8.962;2022-11-15T09:09:21;60.51;42.78;83.95;;
49543;Laerm;35435;48.792;8.962;2022-11-15T09:11:46;46.31;43.04;66.76;;
49543;Laerm;35435;48.792;8.962;2022-11-15T09:14:12;46.19;43.51;54.50;;
49543;Laerm;35435;48.792;8.962;2022-11-15T09:16:38;58.49;42.92;75.50;;
49543;Laerm;35435;48.792;8.962;2022-11-15T09:19:03;45.81;43.24;53.27;;
49543;Laerm;35435;48.792;8.962;2022-11-15T09:21:29;61.69;43.00;78.81;;
49543;Laerm;35435;48.792;8.962;2022-11-15T09:23:55;47.58;43.60;56.91;;
49543;Laerm;35435;48.792;8.962;2022-11-15T09:26:20;50.01;42.86;62.74;;
49543;Laerm;35435;48.792;8.962;2022-11-15T09:28:46;45.19;43.21;56.62;;
49543;Laerm;35435;48.792;8.962;2022-11-15T09:31:11;55.98;42.59;72.90;;
49543;Laerm;35435;48.792;8.962;2022-11-15T09:33:36;57.04;42.30;77.84;;
49543;Laerm;35435;48.792;8.962;2022-11-15T09:36:06;45.29;42.66;53.25;;
49543;Laerm;35435;48.792;8.962;2022-11-15T09:38:32;44.70;42.61;50.64;;
49543;Laerm;35435;48.792;8.962;2022-11-15T09:51:27;44.99;42.90;50.78;;
49543;Laerm;35435;48.792;8.962;2022-11-15T09:56:30;44.97;42.40;54.06;;
49543;Laerm;35435;48.792;8.962;2022-11-15T10:04:25;52.96;42.69;69.03;;
49543;Laerm;35435;48.792;8.962;2022-11-15T10:06:58;63.00;42.35;84.16;;
49543;Laerm;35435;48.792;8.962;2022-11-15T10:09:30;44.43;41.96;49.90;;
49543;Laerm;35435;48.792;8.962;2022-11-15T10:11:55;44.13;42.14;48.55;;
49543;Laerm;35435;48.792;8.962;2022-11-15T10:14:22;55.06;42.19;76.76;;
49543;Laerm;35435;48.792;8.962;2022-11-15T10:16:59;57.31;42.18;75.81;;
49543;Laerm;35435;48.792;8.962;2022-11-15T10:22:09;44.57;42.62;53.27;;
49543;Laerm;35435;48.792;8.962;2022-11-15T10:24:34;44.41;41.94;49.73;;
49543;Laerm;35435;48.792;8.962;2022-11-15T10:26:58;45.11;42.90;57.91;;
49543;Laerm;35435;48.792;8.962;2022-11-15T10:29:24;45.82;42.98;52.62;;
49543;Laerm;35435;48.792;8.962;2022-11-15T10:31:49;60.54;42.26;79.86;;
49543;Laerm;35435;48.792;8.962;2022-11-15T10:34:16;45.85;42.49;57.42;;
49543;Laerm;35435;48.792;8.962;2022-11-15T10:36:55;46.03;42.89;61.35;;
49543;Laerm;35435;48.792;8.962;2022-11-15T10:39:21;44.46;42.58;47.93;;
49543;Laerm;35435;48.792;8.962;2022-11-15T10:41:46;44.62;42.64;50.51;;
49543;Laerm;35435;48.792;8.962;2022-11-15T10:46:46;60.49;42.29;78.69;;
49543;Laerm;35435;48.792;8.962;2022-11-15T10:49:20;45.07;41.93;54.75;;
49543;Laerm;35435;48.792;8.962;2022-11-15T10:51:50;44.49;42.61;55.64;;
49543;Laerm;35435;48.792;8.962;2022-11-15T10:54:20;44.49;42.35;47.01;;
49543;Laerm;35435;48.792;8.962;2022-11-15T10:56:43;67.94;42.55;82.20;;
49543;Laerm;35435;48.792;8.962;2022-11-15T10:59:16;45.99;42.43;58.01;;
49543;Laerm;35435;48.792;8.962;2022-11-15T11:01:47;57.98;41.73;79.65;;
49543;Laerm;35435;48.792;8.962;2022-11-15T11:04:13;44.79;42.46;52.29;;
49543;Laerm;35435;48.792;8.962;2022-11-15T11:06:58;55.86;43.28;73.74;;
49543;Laerm;35435;48.792;8.962;2022-11-15T11:09:40;46.28;43.08;58.80;;
49543;Laerm;35435;48.792;8.962;2022-11-15T11:12:04;48.14;43.91;59.67;;
49543;Laerm;35435;48.792;8.962;2022-11-15T11:14:31;46.77;43.57;56.89;;
49543;Laerm;35435;48.792;8.962;2022-11-15T11:17:05;59.63;43.74;78.09;;
49543;Laerm;35435;48.792;8.962;2022-11-15T11:19:46;46.48;43.88;60.41;;
49543;Laerm;35435;48.792;8.962;2022-11-15T11:24:47;45.62;42.55;58.52;;
49543;Laerm;35435;48.792;8.962;2022-11-15T11:27:27;45.01;41.86;50.75;;
49543;Laerm;35435;48.792;8.962;2022-11-15T11:35:38;47.01;42.53;67.03;;
49543;Laerm;35435;48.792;8.962;2022-11-15T11:37:26;45.73;42.47;54.77;;
49543;Laerm;35435;48.792;8.962;2022-11-15T11:39:56;47.63;42.71;55.61;;
49543;Laerm;35435;48.792;8.962;2022-11-15T11:47:31;56.71;42.81;75.06;;
49543;Laerm;35435;48.792;8.962;2022-11-15T11:50:00;56.28;42.30;75.32;;
49543;Laerm;35435;48.792;8.962;2022-11-15T11:52:34;45.34;41.82;62.24;;
49543;Laerm;35435;48.792;8.962;2022-11-15T11:55:14;45.54;42.21;55.89;;
49543;Laerm;35435;48.792;8.962;2022-11-15T11:57:41;46.34;41.88;52.51;;
49543;Laerm;35435;48.792;8.962;2022-11-15T12:02:48;58.22;42.01;77.11;;
49543;Laerm;35435;48.792;8.962;2022-11-15T12:05:22;46.47;42.62;54.54;;
49543;Laerm;35435;48.792;8.962;2022-11-15T12:07:47;46.30;42.58;52.57;;
49543;Laerm;35435;48.792;8.962;2022-11-15T12:10:19;45.58;42.83;59.72;;
49543;Laerm;35435;48.792;8.962;2022-11-15T12:17:37;54.99;43.66;70.53;;
49543;Laerm;35435;48.792;8.962;2022-11-15T12:20:21;48.93;42.21;71.31;;
49543;Laerm;35435;48.792;8.962;2022-11-15T12:25:16;44.20;41.72;50.79;;
49543;Laerm;35435;48.792;8.962;2022-11-15T12:27:42;45.36;41.98;51.65;;
49543;Laerm;35435;48.792;8.962;2022-11-15T12:30:13;60.71;42.94;80.09;;
49543;Laerm;35435;48.792;8.962;2022-11-15T12:32:39;57.85;42.81;74.75;;
49543;Laerm;35435;48.792;8.962;2022-11-15T12:35:20;45.23;42.50;51.57;;
49543;Laerm;35435;48.792;8.962;2022-11-15T12:37:44;44.85;41.77;55.42;;
49543;Laerm;35435;48.792;8.962;2022-11-15T12:42:35;44.24;41.94;48.72;;
49543;Laerm;35435;48.792;8.962;2022-11-15T12:45:01;46.34;42.76;57.26;;
49543;Laerm;35435;48.792;8.962;2022-11-15T12:47:27;59.26;43.21;75.48;;
49543;Laerm;35435;48.792;8.962;2022-11-15T12:49:52;54.03;42.08;74.84;;
49543;Laerm;35435;48.792;8.962;2022-11-15T12:52:18;46.11;42.90;58.85;;
49543;Laerm;35435;48.792;8.962;2022-11-15T12:54:57;45.55;42.82;51.41;;
49543;Laerm;35435;48.792;8.962;2022-11-15T12:57:27;45.59;42.64;59.80;;
49543;Laerm;35435;48.792;8.962;2022-11-15T12:59:54;45.27;42.88;49.96;;
49543;Laerm;35435;48.792;8.962;2022-11-15T13:02:22;57.51;43.13;78.01;;
49543;Laerm;35435;48.792;8.962;2022-11-15T13:04:48;62.73;43.08;82.71;;
49543;Laerm;35435;48.792;8.962;2022-11-15T13:09:58;46.82;43.41;52.72;;
49543;Laerm;35435;48.792;8.962;2022-11-15T13:14:54;60.33;43.43;76.18;;
49543;Laerm;35435;48.792;8.962;2022-11-15T13:17:54;45.26;42.88;50.84;;
49543;Laerm;35435;48.792;8.962;2022-11-15T13:19:56;51.09;43.10;70.19;;
49543;Laerm;35435;48.792;8.962;2022-11-15T13:22:20;55.84;43.56;76.91;;
49543;Laerm;35435;48.792;8.962;2022-11-15T13:25:04;44.93;42.16;60.06;;
49543;Laerm;35435;48.792;8.962;2022-11-15T13:27:31;45.43;43.29;50.19;;
49543;Laerm;35435;48.792;8.962;2022-11-15T13:29:56;45.45;42.94;52.66;;
49543;Laerm;35435;48.792;8.962;2022-11-15T13:32:22;46.17;42.46;53.77;;
49543;Laerm;35435;48.792;8.962;2022-11-15T13:34:48;58.20;43.24;78.01;;
49543;Laerm;35435;48.792;8.962;2022-11-15T13:39:49;45.76;43.10;60.92;;
49543;Laerm;35435;48.792;8.962;2022-11-15T13:42:15;46.13;43.37;51.33;;
49543;Laerm;35435;48.792;8.962;2022-11-15T13:44:41;59.61;43.32;76.08;;
49543;Laerm;35435;48.792;8.962;2022-11-15T13:47:15;46.26;43.23;56.80;;
49543;Laerm;35435;48.792;8.962;2022-11-15T13:49:41;60.13;44.71;77.36;;
49543;Laerm;35435;48.792;8.962;2022-11-15T13:52:07;47.61;44.11;56.66;;
49543;Laerm;35435;48.792;8.962;2022-11-15T13:54:34;47.00;43.94;57.60;;
49543;Laerm;35435;48.792;8.962;2022-11-15T13:57:02;46.30;44.00;52.75;;
49543;Laerm;35435;48.792;8.962;2022-11-15T13:59:29;46.46;43.92;53.42;;
49543;Laerm;35435;48.792;8.962;2022-11-15T14:01:55;61.23;44.40;77.93;;
49543;Laerm;35435;48.792;8.962;2022-11-15T14:04:22;46.82;44.29;53.80;;
49543;Laerm;35435;48.792;8.962;2022-11-15T14:06:53;47.34;44.11;59.39;;
49543;Laerm;35435;48.792;8.962;2022-11-15T14:11:54;47.30;44.28;54.42;;
49543;Laerm;35435;48.792;8.962;2022-11-15T14:14:16;49.13;44.61;60.09;;
49543;Laerm;35435;48.792;8.962;2022-11-15T14:16:44;59.49;44.59;78.06;;
49543;Laerm;35435;48.792;8.962;2022-11-15T14:21:48;47.31;44.56;53.89;;
49543;Laerm;35435;48.792;8.962;2022-11-15T14:24:15;47.75;44.60;53.31;;
49543;Laerm;35435;48.792;8.962;2022-11-15T14:26:41;48.23;44.38;56.38;;
49543;Laerm;35435;48.792;8.962;2022-11-15T14:29:26;47.32;44.18;53.62;;
49543;Laerm;35435;48.792;8.962;2022-11-15T14:31:52;55.55;44.94;74.12;;
49543;Laerm;35435;48.792;8.962;2022-11-15T14:34:17;56.95;44.39;77.05;;
49543;Laerm;35435;48.792;8.962;2022-11-15T14:36:43;56.86;44.37;75.48;;
49543;Laerm;35435;48.792;8.962;2022-11-15T14:39:08;47.71;44.10;62.50;;
49543;Laerm;35435;48.792;8.962;2022-11-15T14:41:35;47.48;43.58;64.48;;
49543;Laerm;35435;48.792;8.962;2022-11-15T14:44:02;46.78;43.60;54.94;;
49543;Laerm;35435;48.792;8.962;2022-11-15T14:46:28;60.12;44.68;81.48;;
49543;Laerm;35435;48.792;8.962;2022-11-15T14:48:54;61.37;44.28;79.77;;
49543;Laerm;35435;48.792;8.962;2022-11-15T14:51:19;62.62;44.92;74.77;;
49543;Laerm;35435;48.792;8.962;2022-11-15T14:53:44;47.08;43.88;53.36;;
49543;Laerm;35435;48.792;8.962;2022-11-15T14:56:10;46.80;44.35;57.40;;
49543;Laerm;35435;48.792;8.962;2022-11-15T14:58:36;48.25;44.87;59.23;;
49543;Laerm;35435;48.792;8.962;2022-11-15T15:03:40;47.56;44.51;59.87;;
49543;Laerm;35435;48.792;8.962;2022-11-15T15:06:05;59.90;44.99;74.45;;
49543;Laerm;35435;48.792;8.962;2022-11-15T15:08:31;57.93;44.36;74.84;;
49543;Laerm;35435;48.792;8.962;2022-11-15T15:10:56;57.37;44.37;76.39;;
49543;Laerm;35435;48.792;8.962;2022-11-15T15:13:22;56.62;44.97;73.68;;